sensor_id;sensor_type;location;lat;lon;timestamp;P1;durP1;ratioP1;P2;durP2;ratioP2
57217;SDS011;43078;52.972;6.482;2023-08-24T00:01:33;4.43;;;1.50;;
57217;SDS011;43078;52.972;6.482;2023-08-24T00:03:59;4.32;;;1.52;;
57217;SDS011;43078;52.972;6.482;2023-08-24T00:06:24;3.15;;;1.33;;
57217;SDS011;43078;52.972;6.482;2023-08-24T00:08:50;4.35;;;1.65;;
57217;SDS011;43078;52.972;6.482;2023-08-24T00:11:16;4.03;;;1.45;;
57217;SDS011;43078;52.972;6.482;2023-08-24T00:13:42;5.25;;;1.80;;
57217;SDS011;43078;52.972;6.482;2023-08-24T00:16:20;7.78;;;1.77;;
57217;SDS011;43078;52.972;6.482;2023-08-24T00:18:46;4.43;;;1.63;;
57217;SDS011;43078;52.972;6.482;2023-08-24T00:21:15;3.38;;;1.38;;
57217;SDS011;43078;52.972;6.482;2023-08-24T00:23:48;3.00;;;1.40;;
57217;SDS011;43078;52.972;6.482;2023-08-24T00:26:14;5.07;;;1.63;;
57217;SDS011;43078;52.972;6.482;2023-08-24T00:28:42;4.20;;;1.80;;
57217;SDS011;43078;52.972;6.482;2023-08-24T00:31:07;4.03;;;1.58;;
57217;SDS011;43078;52.972;6.482;2023-08-24T00:33:33;4.03;;;1.52;;
57217;SDS011;43078;52.972;6.482;2023-08-24T00:36:02;3.92;;;1.58;;
57217;SDS011;43078;52.972;6.482;2023-08-24T00:38:29;3.90;;;1.65;;
57217;SDS011;43078;52.972;6.482;2023-08-24T00:40:55;4.28;;;1.95;;
57217;SDS011;43078;52.972;6.482;2023-08-24T00:43:21;3.35;;;1.60;;
57217;SDS011;43078;52.972;6.482;2023-08-24T00:45:51;4.28;;;1.77;;
57217;SDS011;43078;52.972;6.482;2023-08-24T00:48:21;4.70;;;1.90;;
57217;SDS011;43078;52.972;6.482;2023-08-24T00:50:58;4.40;;;1.65;;
57217;SDS011;43078;52.972;6.482;2023-08-24T00:53:25;4.00;;;1.67;;
57217;SDS011;43078;52.972;6.482;2023-08-24T00:55:53;4.38;;;1.67;;
57217;SDS011;43078;52.972;6.482;2023-08-24T00:58:19;4.07;;;1.50;;
57217;SDS011;43078;52.972;6.482;2023-08-24T01:00:45;5.07;;;1.67;;
57217;SDS011;43078;52.972;6.482;2023-08-24T01:03:11;3.85;;;1.50;;
57217;SDS011;43078;52.972;6.482;2023-08-24T01:05:37;4.30;;;1.50;;
57217;SDS011;43078;52.972;6.482;2023-08-24T01:08:03;4.50;;;1.65;;
57217;SDS011;43078;52.972;6.482;2023-08-24T01:10:30;4.32;;;1.63;;
57217;SDS011;43078;52.972;6.482;2023-08-24T01:13:30;4.60;;;1.83;;
57217;SDS011;43078;52.972;6.482;2023-08-24T01:16:40;3.95;;;1.70;;
57217;SDS011;43078;52.972;6.482;2023-08-24T01:18:59;2.92;;;1.52;;
57217;SDS011;43078;52.972;6.482;2023-08-24T01:21:27;3.90;;;1.58;;
57217;SDS011;43078;52.972;6.482;2023-08-24T01:26:25;4.53;;;1.48;;
57217;SDS011;43078;52.972;6.482;2023-08-24T01:28:52;3.08;;;1.13;;
57217;SDS011;43078;52.972;6.482;2023-08-24T01:31:18;2.97;;;1.48;;
57217;SDS011;43078;52.972;6.482;2023-08-24T01:33:45;3.95;;;1.48;;
57217;SDS011;43078;52.972;6.482;2023-08-24T01:36:11;3.40;;;1.60;;
57217;SDS011;43078;52.972;6.482;2023-08-24T01:38:38;3.58;;;1.70;;
57217;SDS011;43078;52.972;6.482;2023-08-24T01:43:52;3.53;;;1.73;;
57217;SDS011;43078;52.972;6.482;2023-08-24T01:46:19;3.35;;;1.58;;
57217;SDS011;43078;52.972;6.482;2023-08-24T01:48:47;2.85;;;1.40;;
57217;SDS011;43078;52.972;6.482;2023-08-24T01:51:13;5.00;;;1.73;;
57217;SDS011;43078;52.972;6.482;2023-08-24T01:53:40;4.38;;;1.50;;
57217;SDS011;43078;52.972;6.482;2023-08-24T01:56:12;4.88;;;1.90;;
57217;SDS011;43078;52.972;6.482;2023-08-24T01:58:40;3.55;;;1.70;;
57217;SDS011;43078;52.972;6.482;2023-08-24T02:01:05;4.88;;;1.63;;
57217;SDS011;43078;52.972;6.482;2023-08-24T02:03:33;4.13;;;1.90;;
57217;SDS011;43078;52.972;6.482;2023-08-24T02:05:59;4.32;;;1.77;;
57217;SDS011;43078;52.972;6.482;2023-08-24T02:08:24;3.72;;;1.60;;
57217;SDS011;43078;52.972;6.482;2023-08-24T02:10:50;5.20;;;1.70;;
57217;SDS011;43078;52.972;6.482;2023-08-24T02:13:16;4.75;;;1.80;;
57217;SDS011;43078;52.972;6.482;2023-08-24T02:15:41;4.55;;;1.80;;
57217;SDS011;43078;52.972;6.482;2023-08-24T02:18:07;4.53;;;1.73;;
57217;SDS011;43078;52.972;6.482;2023-08-24T02:20:38;5.05;;;1.83;;
57217;SDS011;43078;52.972;6.482;2023-08-24T02:23:05;5.68;;;1.70;;
57217;SDS011;43078;52.972;6.482;2023-08-24T02:25:31;4.20;;;1.65;;
57217;SDS011;43078;52.972;6.482;2023-08-24T02:27:58;5.45;;;2.00;;
57217;SDS011;43078;52.972;6.482;2023-08-24T02:30:24;5.28;;;1.80;;
57217;SDS011;43078;52.972;6.482;2023-08-24T02:32:50;6.15;;;2.05;;
57217;SDS011;43078;52.972;6.482;2023-08-24T02:35:16;4.40;;;1.98;;
57217;SDS011;43078;52.972;6.482;2023-08-24T02:37:43;6.22;;;2.15;;
57217;SDS011;43078;52.972;6.482;2023-08-24T02:40:08;6.30;;;2.20;;
57217;SDS011;43078;52.972;6.482;2023-08-24T02:42:34;4.97;;;2.00;;
57217;SDS011;43078;52.972;6.482;2023-08-24T02:45:00;3.35;;;1.70;;
57217;SDS011;43078;52.972;6.482;2023-08-24T02:47:26;4.00;;;1.90;;
57217;SDS011;43078;52.972;6.482;2023-08-24T02:49:52;4.55;;;1.98;;
57217;SDS011;43078;52.972;6.482;2023-08-24T02:52:17;4.15;;;1.98;;
57217;SDS011;43078;52.972;6.482;2023-08-24T02:54:43;4.93;;;1.90;;
57217;SDS011;43078;52.972;6.482;2023-08-24T02:57:08;5.25;;;1.90;;
57217;SDS011;43078;52.972;6.482;2023-08-24T02:59:34;4.38;;;1.90;;
57217;SDS011;43078;52.972;6.482;2023-08-24T03:02:00;5.72;;;1.90;;
57217;SDS011;43078;52.972;6.482;2023-08-24T03:04:26;5.95;;;2.08;;
57217;SDS011;43078;52.972;6.482;2023-08-24T03:06:52;3.35;;;1.65;;
57217;SDS011;43078;52.972;6.482;2023-08-24T03:09:17;5.40;;;1.98;;
57217;SDS011;43078;52.972;6.482;2023-08-24T03:11:43;6.22;;;2.20;;
57217;SDS011;43078;52.972;6.482;2023-08-24T03:14:09;3.95;;;1.85;;
57217;SDS011;43078;52.972;6.482;2023-08-24T03:16:38;3.60;;;1.60;;
57217;SDS011;43078;52.972;6.482;2023-08-24T03:19:06;4.30;;;1.90;;
57217;SDS011;43078;52.972;6.482;2023-08-24T03:21:36;5.28;;;1.90;;
57217;SDS011;43078;52.972;6.482;2023-08-24T03:24:02;6.35;;;1.83;;
57217;SDS011;43078;52.972;6.482;2023-08-24T03:26:29;4.28;;;1.70;;
57217;SDS011;43078;52.972;6.482;2023-08-24T03:28:58;3.58;;;1.80;;
57217;SDS011;43078;52.972;6.482;2023-08-24T03:31:26;3.85;;;1.88;;
57217;SDS011;43078;52.972;6.482;2023-08-24T03:33:55;4.68;;;2.10;;
57217;SDS011;43078;52.972;6.482;2023-08-24T03:36:20;5.53;;;1.98;;
57217;SDS011;43078;52.972;6.482;2023-08-24T03:38:46;5.00;;;2.10;;
57217;SDS011;43078;52.972;6.482;2023-08-24T03:41:11;5.07;;;2.00;;
57217;SDS011;43078;52.972;6.482;2023-08-24T03:43:37;4.55;;;2.00;;
57217;SDS011;43078;52.972;6.482;2023-08-24T03:46:03;4.07;;;2.00;;
57217;SDS011;43078;52.972;6.482;2023-08-24T03:48:30;4.28;;;1.80;;
57217;SDS011;43078;52.972;6.482;2023-08-24T03:50:56;3.97;;;1.83;;
57217;SDS011;43078;52.972;6.482;2023-08-24T03:53:23;4.20;;;1.80;;
57217;SDS011;43078;52.972;6.482;2023-08-24T03:55:50;4.70;;;2.10;;
57217;SDS011;43078;52.972;6.482;2023-08-24T03:58:16;4.38;;;1.70;;
57217;SDS011;43078;52.972;6.482;2023-08-24T04:00:45;10.38;;;2.05;;
57217;SDS011;43078;52.972;6.482;2023-08-24T04:03:13;4.63;;;1.73;;
57217;SDS011;43078;52.972;6.482;2023-08-24T04:05:39;4.18;;;1.73;;
57217;SDS011;43078;52.972;6.482;2023-08-24T04:08:05;5.25;;;2.10;;
57217;SDS011;43078;52.972;6.482;2023-08-24T04:10:30;6.38;;;1.70;;
57217;SDS011;43078;52.972;6.482;2023-08-24T04:12:56;6.50;;;2.00;;
57217;SDS011;43078;52.972;6.482;2023-08-24T04:15:25;10.00;;;2.10;;
57217;SDS011;43078;52.972;6.482;2023-08-24T04:17:51;4.65;;;2.00;;
57217;SDS011;43078;52.972;6.482;2023-08-24T04:20:20;4.97;;;2.20;;
57217;SDS011;43078;52.972;6.482;2023-08-24T04:22:46;4.97;;;2.20;;
57217;SDS011;43078;52.972;6.482;2023-08-24T04:25:12;4.35;;;1.95;;
57217;SDS011;43078;52.972;6.482;2023-08-24T04:27:37;5.88;;;2.10;;
57217;SDS011;43078;52.972;6.482;2023-08-24T04:30:03;5.00;;;2.10;;
57217;SDS011;43078;52.972;6.482;2023-08-24T04:32:31;4.32;;;1.83;;
57217;SDS011;43078;52.972;6.482;2023-08-24T04:34:57;7.07;;;2.13;;
57217;SDS011;43078;52.972;6.482;2023-08-24T04:37:23;5.13;;;2.30;;
57217;SDS011;43078;52.972;6.482;2023-08-24T04:39:48;4.80;;;2.00;;
57217;SDS011;43078;52.972;6.482;2023-08-24T04:42:14;5.60;;;1.98;;
57217;SDS011;43078;52.972;6.482;2023-08-24T04:44:40;7.40;;;2.08;;
57217;SDS011;43078;52.972;6.482;2023-08-24T04:47:06;5.45;;;2.10;;
57217;SDS011;43078;52.972;6.482;2023-08-24T04:49:32;4.82;;;2.10;;
57217;SDS011;43078;52.972;6.482;2023-08-24T04:51:58;5.18;;;1.95;;
57217;SDS011;43078;52.972;6.482;2023-08-24T04:54:23;5.22;;;2.00;;
57217;SDS011;43078;52.972;6.482;2023-08-24T04:56:49;5.57;;;2.10;;
57217;SDS011;43078;52.972;6.482;2023-08-24T04:59:14;3.95;;;1.92;;
57217;SDS011;43078;52.972;6.482;2023-08-24T05:01:40;4.47;;;2.03;;
57217;SDS011;43078;52.972;6.482;2023-08-24T05:04:06;5.60;;;2.28;;
57217;SDS011;43078;52.972;6.482;2023-08-24T05:06:31;4.10;;;2.17;;
57217;SDS011;43078;52.972;6.482;2023-08-24T05:08:57;5.68;;;1.90;;
57217;SDS011;43078;52.972;6.482;2023-08-24T05:11:23;5.65;;;2.13;;
57217;SDS011;43078;52.972;6.482;2023-08-24T05:13:49;5.53;;;1.92;;
57217;SDS011;43078;52.972;6.482;2023-08-24T05:16:15;6.07;;;2.05;;
57217;SDS011;43078;52.972;6.482;2023-08-24T05:18:41;5.30;;;2.30;;
57217;SDS011;43078;52.972;6.482;2023-08-24T05:21:06;4.38;;;2.10;;
57217;SDS011;43078;52.972;6.482;2023-08-24T05:23:32;5.00;;;1.90;;
57217;SDS011;43078;52.972;6.482;2023-08-24T05:25:59;6.05;;;1.90;;
57217;SDS011;43078;52.972;6.482;2023-08-24T05:28:29;3.63;;;1.92;;
57217;SDS011;43078;52.972;6.482;2023-08-24T05:30:55;5.88;;;2.20;;
57217;SDS011;43078;52.972;6.482;2023-08-24T05:33:22;5.78;;;2.20;;
57217;SDS011;43078;52.972;6.482;2023-08-24T05:35:48;5.63;;;1.98;;
57217;SDS011;43078;52.972;6.482;2023-08-24T05:38:15;4.28;;;2.25;;
57217;SDS011;43078;52.972;6.482;2023-08-24T05:40:42;4.28;;;1.98;;
57217;SDS011;43078;52.972;6.482;2023-08-24T05:43:08;6.95;;;2.83;;
57217;SDS011;43078;52.972;6.482;2023-08-24T05:45:35;4.65;;;2.20;;
57217;SDS011;43078;52.972;6.482;2023-08-24T05:48:01;7.03;;;2.30;;
57217;SDS011;43078;52.972;6.482;2023-08-24T05:50:26;6.47;;;2.40;;
57217;SDS011;43078;52.972;6.482;2023-08-24T05:52:52;3.78;;;1.83;;
57217;SDS011;43078;52.972;6.482;2023-08-24T05:55:18;4.85;;;2.15;;
57217;SDS011;43078;52.972;6.482;2023-08-24T05:57:43;6.85;;;2.58;;
57217;SDS011;43078;52.972;6.482;2023-08-24T06:00:09;4.88;;;2.20;;
57217;SDS011;43078;52.972;6.482;2023-08-24T06:02:36;4.80;;;2.30;;
57217;SDS011;43078;52.972;6.482;2023-08-24T06:05:02;4.72;;;2.22;;
57217;SDS011;43078;52.972;6.482;2023-08-24T06:07:28;5.22;;;2.30;;
57217;SDS011;43078;52.972;6.482;2023-08-24T06:09:55;6.53;;;3.03;;
57217;SDS011;43078;52.972;6.482;2023-08-24T06:12:21;6.10;;;2.60;;
57217;SDS011;43078;52.972;6.482;2023-08-24T06:14:47;6.70;;;2.95;;
57217;SDS011;43078;52.972;6.482;2023-08-24T06:17:13;6.63;;;2.75;;
57217;SDS011;43078;52.972;6.482;2023-08-24T06:19:38;6.28;;;2.35;;
57217;SDS011;43078;52.972;6.482;2023-08-24T06:22:04;6.63;;;2.50;;
57217;SDS011;43078;52.972;6.482;2023-08-24T06:24:30;5.07;;;2.13;;
57217;SDS011;43078;52.972;6.482;2023-08-24T06:26:59;5.15;;;2.20;;
57217;SDS011;43078;52.972;6.482;2023-08-24T06:29:25;6.78;;;2.40;;
57217;SDS011;43078;52.972;6.482;2023-08-24T06:31:52;5.93;;;2.47;;
57217;SDS011;43078;52.972;6.482;2023-08-24T06:34:18;6.50;;;2.50;;
57217;SDS011;43078;52.972;6.482;2023-08-24T06:36:43;6.18;;;2.35;;
57217;SDS011;43078;52.972;6.482;2023-08-24T06:39:09;5.63;;;2.38;;
57217;SDS011;43078;52.972;6.482;2023-08-24T06:41:35;4.47;;;2.22;;
57217;SDS011;43078;52.972;6.482;2023-08-24T06:44:00;6.03;;;2.15;;
57217;SDS011;43078;52.972;6.482;2023-08-24T06:46:26;4.78;;;2.05;;
57217;SDS011;43078;52.972;6.482;2023-08-24T06:48:52;5.63;;;2.25;;
57217;SDS011;43078;52.972;6.482;2023-08-24T06:51:17;5.57;;;2.20;;
57217;SDS011;43078;52.972;6.482;2023-08-24T06:53:43;7.43;;;2.28;;
57217;SDS011;43078;52.972;6.482;2023-08-24T06:56:11;6.53;;;2.20;;
57217;SDS011;43078;52.972;6.482;2023-08-24T06:58:39;5.03;;;2.30;;
57217;SDS011;43078;52.972;6.482;2023-08-24T07:01:04;6.60;;;2.30;;
57217;SDS011;43078;52.972;6.482;2023-08-24T07:03:31;4.97;;;1.95;;
57217;SDS011;43078;52.972;6.482;2023-08-24T07:05:58;4.28;;;2.10;;
57217;SDS011;43078;52.972;6.482;2023-08-24T07:08:24;4.13;;;2.00;;
57217;SDS011;43078;52.972;6.482;2023-08-24T07:10:50;8.52;;;2.30;;
57217;SDS011;43078;52.972;6.482;2023-08-24T07:13:15;5.88;;;2.28;;
57217;SDS011;43078;52.972;6.482;2023-08-24T07:15:41;3.97;;;1.85;;
57217;SDS011;43078;52.972;6.482;2023-08-24T07:18:07;8.38;;;3.40;;
57217;SDS011;43078;52.972;6.482;2023-08-24T07:20:33;4.25;;;2.13;;
57217;SDS011;43078;52.972;6.482;2023-08-24T07:23:02;5.18;;;2.03;;
57217;SDS011;43078;52.972;6.482;2023-08-24T07:25:29;8.57;;;3.00;;
57217;SDS011;43078;52.972;6.482;2023-08-24T07:27:54;5.78;;;2.28;;
57217;SDS011;43078;52.972;6.482;2023-08-24T07:30:27;7.53;;;3.60;;
57217;SDS011;43078;52.972;6.482;2023-08-24T07:32:53;8.13;;;3.58;;
57217;SDS011;43078;52.972;6.482;2023-08-24T07:35:19;6.72;;;2.75;;
57217;SDS011;43078;52.972;6.482;2023-08-24T07:37:46;9.35;;;4.18;;
57217;SDS011;43078;52.972;6.482;2023-08-24T07:40:14;10.05;;;3.92;;
57217;SDS011;43078;52.972;6.482;2023-08-24T07:42:44;8.10;;;2.80;;
57217;SDS011;43078;52.972;6.482;2023-08-24T07:45:11;6.50;;;2.72;;
57217;SDS011;43078;52.972;6.482;2023-08-24T07:47:37;6.22;;;2.78;;
57217;SDS011;43078;52.972;6.482;2023-08-24T07:50:03;7.20;;;3.50;;
57217;SDS011;43078;52.972;6.482;2023-08-24T07:52:28;9.05;;;4.40;;
57217;SDS011;43078;52.972;6.482;2023-08-24T07:54:54;9.30;;;4.63;;
57217;SDS011;43078;52.972;6.482;2023-08-24T07:57:24;8.10;;;4.00;;
57217;SDS011;43078;52.972;6.482;2023-08-24T07:59:51;8.18;;;3.70;;
57217;SDS011;43078;52.972;6.482;2023-08-24T08:02:17;7.30;;;3.70;;
57217;SDS011;43078;52.972;6.482;2023-08-24T08:04:43;8.73;;;5.20;;
57217;SDS011;43078;52.972;6.482;2023-08-24T08:07:08;8.77;;;4.45;;
57217;SDS011;43078;52.972;6.482;2023-08-24T08:09:35;12.32;;;5.35;;
57217;SDS011;43078;52.972;6.482;2023-08-24T08:12:01;9.68;;;4.72;;
57217;SDS011;43078;52.972;6.482;2023-08-24T08:14:28;7.00;;;3.85;;
57217;SDS011;43078;52.972;6.482;2023-08-24T08:16:54;10.52;;;5.05;;
57217;SDS011;43078;52.972;6.482;2023-08-24T08:19:21;8.80;;;4.00;;
57217;SDS011;43078;52.972;6.482;2023-08-24T08:21:47;8.73;;;3.30;;
57217;SDS011;43078;52.972;6.482;2023-08-24T08:24:12;7.28;;;4.00;;
57217;SDS011;43078;52.972;6.482;2023-08-24T08:26:38;6.78;;;3.47;;
57217;SDS011;43078;52.972;6.482;2023-08-24T08:29:03;7.78;;;3.80;;
57217;SDS011;43078;52.972;6.482;2023-08-24T08:31:30;10.57;;;5.25;;
57217;SDS011;43078;52.972;6.482;2023-08-24T08:33:56;10.93;;;4.35;;
57217;SDS011;43078;52.972;6.482;2023-08-24T08:36:21;7.53;;;3.55;;
57217;SDS011;43078;52.972;6.482;2023-08-24T08:38:47;10.60;;;3.97;;
57217;SDS011;43078;52.972;6.482;2023-08-24T08:41:14;8.80;;;4.00;;
57217;SDS011;43078;52.972;6.482;2023-08-24T08:43:41;6.32;;;3.08;;
57217;SDS011;43078;52.972;6.482;2023-08-24T08:46:06;9.95;;;4.07;;
57217;SDS011;43078;52.972;6.482;2023-08-24T08:48:32;10.85;;;4.28;;
57217;SDS011;43078;52.972;6.482;2023-08-24T08:51:00;7.53;;;3.40;;
57217;SDS011;43078;52.972;6.482;2023-08-24T08:53:27;6.47;;;3.03;;
57217;SDS011;43078;52.972;6.482;2023-08-24T08:55:54;6.60;;;3.22;;
57217;SDS011;43078;52.972;6.482;2023-08-24T08:58:20;6.65;;;3.08;;
57217;SDS011;43078;52.972;6.482;2023-08-24T09:00:46;4.93;;;3.08;;
57217;SDS011;43078;52.972;6.482;2023-08-24T09:03:13;9.95;;;4.53;;
57217;SDS011;43078;52.972;6.482;2023-08-24T09:05:42;9.18;;;4.07;;
57217;SDS011;43078;52.972;6.482;2023-08-24T09:08:08;8.75;;;4.10;;
57217;SDS011;43078;52.972;6.482;2023-08-24T09:10:34;12.20;;;4.75;;
57217;SDS011;43078;52.972;6.482;2023-08-24T09:13:00;8.93;;;4.60;;
57217;SDS011;43078;52.972;6.482;2023-08-24T09:15:26;11.68;;;5.00;;
57217;SDS011;43078;52.972;6.482;2023-08-24T09:17:53;9.73;;;4.22;;
57217;SDS011;43078;52.972;6.482;2023-08-24T09:20:21;14.68;;;5.68;;
57217;SDS011;43078;52.972;6.482;2023-08-24T09:22:47;10.80;;;4.65;;
57217;SDS011;43078;52.972;6.482;2023-08-24T09:25:12;8.00;;;4.13;;
57217;SDS011;43078;52.972;6.482;2023-08-24T09:27:38;9.65;;;4.25;;
57217;SDS011;43078;52.972;6.482;2023-08-24T09:30:04;7.63;;;3.95;;
57217;SDS011;43078;52.972;6.482;2023-08-24T09:32:33;11.85;;;4.80;;
57217;SDS011;43078;52.972;6.482;2023-08-24T09:35:01;10.80;;;4.68;;
57217;SDS011;43078;52.972;6.482;2023-08-24T09:37:36;7.18;;;4.18;;
57217;SDS011;43078;52.972;6.482;2023-08-24T09:40:07;7.80;;;3.85;;
57217;SDS011;43078;52.972;6.482;2023-08-24T09:42:40;9.05;;;4.07;;
57217;SDS011;43078;52.972;6.482;2023-08-24T09:45:11;9.63;;;4.95;;
57217;SDS011;43078;52.972;6.482;2023-08-24T09:47:38;7.70;;;4.00;;
57217;SDS011;43078;52.972;6.482;2023-08-24T09:50:04;10.90;;;4.70;;
57217;SDS011;43078;52.972;6.482;2023-08-24T09:52:31;7.47;;;3.63;;
57217;SDS011;43078;52.972;6.482;2023-08-24T09:54:59;8.60;;;3.80;;
57217;SDS011;43078;52.972;6.482;2023-08-24T09:57:40;8.85;;;5.43;;
57217;SDS011;43078;52.972;6.482;2023-08-24T10:00:07;10.63;;;5.68;;
57217;SDS011;43078;52.972;6.482;2023-08-24T10:03:00;10.35;;;4.85;;
57217;SDS011;43078;52.972;6.482;2023-08-24T10:05:26;8.98;;;5.03;;
57217;SDS011;43078;52.972;6.482;2023-08-24T10:07:54;7.50;;;4.05;;
57217;SDS011;43078;52.972;6.482;2023-08-24T10:10:21;7.25;;;3.78;;
57217;SDS011;43078;52.972;6.482;2023-08-24T10:12:56;6.93;;;3.35;;
57217;SDS011;43078;52.972;6.482;2023-08-24T10:15:24;8.93;;;3.90;;
57217;SDS011;43078;52.972;6.482;2023-08-24T10:17:51;9.35;;;5.82;;
57217;SDS011;43078;52.972;6.482;2023-08-24T10:20:19;10.80;;;6.05;;
57217;SDS011;43078;52.972;6.482;2023-08-24T10:22:45;7.35;;;3.95;;
57217;SDS011;43078;52.972;6.482;2023-08-24T10:25:12;8.40;;;4.95;;
57217;SDS011;43078;52.972;6.482;2023-08-24T10:27:41;6.07;;;3.50;;
57217;SDS011;43078;52.972;6.482;2023-08-24T10:30:12;6.18;;;3.20;;
57217;SDS011;43078;52.972;6.482;2023-08-24T10:32:42;6.88;;;3.47;;
57217;SDS011;43078;52.972;6.482;2023-08-24T10:35:08;6.15;;;3.38;;
57217;SDS011;43078;52.972;6.482;2023-08-24T10:37:34;7.57;;;4.10;;
57217;SDS011;43078;52.972;6.482;2023-08-24T10:40:00;10.77;;;5.40;;
57217;SDS011;43078;52.972;6.482;2023-08-24T10:42:26;9.90;;;6.55;;
57217;SDS011;43078;52.972;6.482;2023-08-24T10:44:51;11.65;;;6.30;;
57217;SDS011;43078;52.972;6.482;2023-08-24T10:47:21;9.75;;;5.55;;
57217;SDS011;43078;52.972;6.482;2023-08-24T10:52:20;9.53;;;4.33;;
57217;SDS011;43078;52.972;6.482;2023-08-24T10:54:50;8.15;;;4.20;;
57217;SDS011;43078;52.972;6.482;2023-08-24T10:57:27;10.00;;;5.50;;
57217;SDS011;43078;52.972;6.482;2023-08-24T11:02:45;9.85;;;3.75;;
57217;SDS011;43078;52.972;6.482;2023-08-24T11:05:19;7.38;;;3.50;;
57217;SDS011;43078;52.972;6.482;2023-08-24T11:07:58;11.70;;;5.57;;
57217;SDS011;43078;52.972;6.482;2023-08-24T11:10:26;8.73;;;4.82;;
57217;SDS011;43078;52.972;6.482;2023-08-24T11:13:05;11.32;;;5.70;;
57217;SDS011;43078;52.972;6.482;2023-08-24T11:15:32;7.47;;;3.78;;
57217;SDS011;43078;52.972;6.482;2023-08-24T11:20:53;10.93;;;6.25;;
57217;SDS011;43078;52.972;6.482;2023-08-24T11:23:27;9.55;;;5.80;;
57217;SDS011;43078;52.972;6.482;2023-08-24T11:25:54;10.07;;;6.40;;
57217;SDS011;43078;52.972;6.482;2023-08-24T11:28:25;13.27;;;7.22;;
57217;SDS011;43078;52.972;6.482;2023-08-24T11:31:11;8.43;;;4.88;;
57217;SDS011;43078;52.972;6.482;2023-08-24T11:33:37;10.55;;;6.32;;
57217;SDS011;43078;52.972;6.482;2023-08-24T11:36:03;13.52;;;7.35;;
57217;SDS011;43078;52.972;6.482;2023-08-24T11:38:36;11.70;;;7.13;;
57217;SDS011;43078;52.972;6.482;2023-08-24T11:41:10;13.75;;;7.53;;
57217;SDS011;43078;52.972;6.482;2023-08-24T11:43:46;10.60;;;7.13;;
57217;SDS011;43078;52.972;6.482;2023-08-24T11:46:13;10.88;;;7.60;;
57217;SDS011;43078;52.972;6.482;2023-08-24T11:48:40;11.50;;;7.25;;
57217;SDS011;43078;52.972;6.482;2023-08-24T11:51:10;11.95;;;7.40;;
57217;SDS011;43078;52.972;6.482;2023-08-24T11:53:43;9.25;;;4.85;;
57217;SDS011;43078;52.972;6.482;2023-08-24T11:56:10;7.75;;;4.10;;
57217;SDS011;43078;52.972;6.482;2023-08-24T11:58:38;12.35;;;7.38;;
57217;SDS011;43078;52.972;6.482;2023-08-24T12:01:08;10.13;;;6.35;;
57217;SDS011;43078;52.972;6.482;2023-08-24T12:03:37;12.20;;;7.00;;
57217;SDS011;43078;52.972;6.482;2023-08-24T12:06:16;8.30;;;4.93;;
57217;SDS011;43078;52.972;6.482;2023-08-24T12:08:43;11.85;;;6.65;;
57217;SDS011;43078;52.972;6.482;2023-08-24T12:11:18;10.80;;;6.38;;
57217;SDS011;43078;52.972;6.482;2023-08-24T12:14:06;8.35;;;5.05;;
57217;SDS011;43078;52.972;6.482;2023-08-24T12:16:34;10.85;;;6.00;;
57217;SDS011;43078;52.972;6.482;2023-08-24T12:19:00;7.50;;;5.22;;
57217;SDS011;43078;52.972;6.482;2023-08-24T12:21:29;14.52;;;7.18;;
57217;SDS011;43078;52.972;6.482;2023-08-24T12:23:59;7.50;;;4.85;;
57217;SDS011;43078;52.972;6.482;2023-08-24T12:26:32;8.40;;;4.50;;
57217;SDS011;43078;52.972;6.482;2023-08-24T12:29:00;8.30;;;5.05;;
57217;SDS011;43078;52.972;6.482;2023-08-24T12:31:28;10.00;;;5.38;;
57217;SDS011;43078;52.972;6.482;2023-08-24T12:34:05;13.00;;;7.88;;
57217;SDS011;43078;52.972;6.482;2023-08-24T12:36:35;6.93;;;4.63;;
57217;SDS011;43078;52.972;6.482;2023-08-24T12:39:02;14.23;;;8.00;;
57217;SDS011;43078;52.972;6.482;2023-08-24T12:41:32;13.73;;;8.20;;
57217;SDS011;43078;52.972;6.482;2023-08-24T12:43:58;13.65;;;9.20;;
57217;SDS011;43078;52.972;6.482;2023-08-24T12:46:24;9.30;;;6.68;;
57217;SDS011;43078;52.972;6.482;2023-08-24T12:48:50;10.60;;;6.18;;
57217;SDS011;43078;52.972;6.482;2023-08-24T12:51:17;14.77;;;8.80;;
57217;SDS011;43078;52.972;6.482;2023-08-24T12:53:43;10.15;;;6.20;;
57217;SDS011;43078;52.972;6.482;2023-08-24T12:56:08;13.48;;;8.90;;
57217;SDS011;43078;52.972;6.482;2023-08-24T12:58:34;15.75;;;9.00;;
57217;SDS011;43078;52.972;6.482;2023-08-24T13:01:00;13.10;;;8.32;;
57217;SDS011;43078;52.972;6.482;2023-08-24T13:03:26;11.70;;;8.63;;
57217;SDS011;43078;52.972;6.482;2023-08-24T13:05:51;14.35;;;8.98;;
57217;SDS011;43078;52.972;6.482;2023-08-24T13:08:17;10.38;;;7.78;;
57217;SDS011;43078;52.972;6.482;2023-08-24T13:10:42;11.40;;;7.18;;
57217;SDS011;43078;52.972;6.482;2023-08-24T13:13:08;14.85;;;9.10;;
57217;SDS011;43078;52.972;6.482;2023-08-24T13:15:34;12.45;;;9.27;;
57217;SDS011;43078;52.972;6.482;2023-08-24T13:17:59;8.95;;;6.07;;
57217;SDS011;43078;52.972;6.482;2023-08-24T13:20:25;13.45;;;8.20;;
57217;SDS011;43078;52.972;6.482;2023-08-24T13:22:52;7.32;;;5.05;;
57217;SDS011;43078;52.972;6.482;2023-08-24T13:25:21;14.02;;;8.75;;
57217;SDS011;43078;52.972;6.482;2023-08-24T13:27:46;14.93;;;8.75;;
57217;SDS011;43078;52.972;6.482;2023-08-24T13:30:12;11.23;;;6.72;;
57217;SDS011;43078;52.972;6.482;2023-08-24T13:32:41;12.40;;;8.70;;
57217;SDS011;43078;52.972;6.482;2023-08-24T13:35:07;15.13;;;8.57;;
57217;SDS011;43078;52.972;6.482;2023-08-24T13:37:34;12.00;;;7.18;;
57217;SDS011;43078;52.972;6.482;2023-08-24T13:39:59;12.50;;;8.50;;
57217;SDS011;43078;52.972;6.482;2023-08-24T13:42:25;14.23;;;8.93;;
57217;SDS011;43078;52.972;6.482;2023-08-24T13:44:51;16.08;;;9.23;;
57217;SDS011;43078;52.972;6.482;2023-08-24T13:47:16;13.48;;;9.00;;
57217;SDS011;43078;52.972;6.482;2023-08-24T13:49:42;12.35;;;8.32;;
57217;SDS011;43078;52.972;6.482;2023-08-24T13:52:08;11.82;;;7.32;;
57217;SDS011;43078;52.972;6.482;2023-08-24T13:54:34;10.73;;;7.25;;
57217;SDS011;43078;52.972;6.482;2023-08-24T13:56:59;11.30;;;5.60;;
57217;SDS011;43078;52.972;6.482;2023-08-24T13:59:26;14.80;;;9.13;;
57217;SDS011;43078;52.972;6.482;2023-08-24T14:01:52;12.25;;;9.00;;
57217;SDS011;43078;52.972;6.482;2023-08-24T14:04:17;8.38;;;6.20;;
57217;SDS011;43078;52.972;6.482;2023-08-24T14:06:43;11.13;;;9.40;;
57217;SDS011;43078;52.972;6.482;2023-08-24T14:09:08;14.10;;;8.93;;
57217;SDS011;43078;52.972;6.482;2023-08-24T14:11:34;7.90;;;5.03;;
57217;SDS011;43078;52.972;6.482;2023-08-24T14:14:00;17.20;;;8.93;;
57217;SDS011;43078;52.972;6.482;2023-08-24T14:16:26;10.30;;;7.15;;
57217;SDS011;43078;52.972;6.482;2023-08-24T14:18:52;9.02;;;5.68;;
57217;SDS011;43078;52.972;6.482;2023-08-24T14:21:18;12.32;;;9.52;;
57217;SDS011;43078;52.972;6.482;2023-08-24T14:23:45;8.80;;;6.38;;
57217;SDS011;43078;52.972;6.482;2023-08-24T14:26:11;14.05;;;9.20;;
57217;SDS011;43078;52.972;6.482;2023-08-24T14:28:59;14.10;;;8.45;;
57217;SDS011;43078;52.972;6.482;2023-08-24T14:31:27;11.60;;;8.38;;
57217;SDS011;43078;52.972;6.482;2023-08-24T14:33:54;8.40;;;6.38;;
57217;SDS011;43078;52.972;6.482;2023-08-24T14:36:20;9.63;;;6.78;;
57217;SDS011;43078;52.972;6.482;2023-08-24T14:38:47;11.15;;;6.50;;
57217;SDS011;43078;52.972;6.482;2023-08-24T14:41:13;9.95;;;6.75;;
57217;SDS011;43078;52.972;6.482;2023-08-24T14:43:39;8.00;;;5.57;;
57217;SDS011;43078;52.972;6.482;2023-08-24T14:46:06;8.35;;;5.68;;
57217;SDS011;43078;52.972;6.482;2023-08-24T14:48:32;10.35;;;5.88;;
57217;SDS011;43078;52.972;6.482;2023-08-24T14:50:58;7.32;;;4.78;;
57217;SDS011;43078;52.972;6.482;2023-08-24T14:53:24;11.02;;;7.55;;
57217;SDS011;43078;52.972;6.482;2023-08-24T14:55:50;10.05;;;5.65;;
57217;SDS011;43078;52.972;6.482;2023-08-24T14:58:17;19.23;;;9.82;;
57217;SDS011;43078;52.972;6.482;2023-08-24T15:00:42;8.05;;;5.60;;